Ruth, Mississippi
Current Conditions -  °F | °C
As of 10:53 AM on Wednesday 26 Nov 2014 (Local Time) from KMCB Reporting Station
Clear Clear  
Wind Chill: 15°   Ceiling: Unl
Heat Index: 15°   Visibility: 10mi
Dew Point:   Wind: 10mph
Humidity: 41%   Direction: 200°SSW
Pressure: 30.21"   Gusts: 18mph
Location:  31.38°N, 90.32°W
Report Text: KMCB 261653Z AUTO 20009G16KT 10SM CLR 15/02 A3021 RMK AO2 SLP229 T01500017
Loading
Personal Weather Stations






























Interactive Weather Map New forecast layout! Learn more

10-Day Weather Forecast

Advertisements
Track Severe Weather on mobile